• Join FlightAware (Why Join?)
  • Login
  • US Flag 
03:57PM EDT


 

Airport Tracker/Info


-or-


 

Live Flight TrackerFlight Track Log ✈ FLG3408 ✈ 14-Oct-2013 ✈ KRDU - KDTW

Flight Track Log - Related Links

Times and Time Zones

All times are in EDT time to prevent confusion due to time zone crossing. See the FLG3408 flight status page for this flight to view local times or setup timezone preferences in your user account.

Time Position Orientation Groundspeed Altitude Reporting Facility
EDT Latitude Longitude Course Direction KTS MPH feet Rate Location/Type
07:39PM 35.8967 -78.7767 24° Northeast 164 189 1,400  Level Washington Center
07:40PM 35.9453 -78.7503 24° Northeast 197 227 3,800 2,220 Climbing Washington Center
07:41PM 35.9961 -78.8011 321° Northwest 290 334 5,900 2,580 Climbing Washington Center
07:42PM 36.0186 -78.8972 286° West 279 321 9,100 2,820 Climbing Washington Center
07:43PM 36.0242 -79.0000 274° West 288 331 11,700 2,520 Climbing Washington Center
07:44PM 36.0272 -79.1106 272° West 311 358 14,300 2,280 Climbing Washington Center
07:45PM 36.0592 -79.2225 289° West 335 386 16,300 1,800 Climbing Washington Center
07:46PM 36.1322 -79.2903 323° Northwest 342 394 17,900 1,800 Climbing Washington Center
07:47PM 36.2256 -79.3822 322° Northwest 366 421 20,000 2,100 Climbing Washington Center
07:48PM 36.3083 -79.4633 322° Northwest 379 436 22,200 1,740 Climbing Washington Center
07:49PM 36.3831 -79.5419 320° Northwest 386 444 23,500 1,620 Climbing Washington Center
07:50PM 36.4781 -79.6347 322° Northwest 392 451 25,500 1,860 Climbing Washington Center
07:51PM 36.5647 -79.7244 320° Northwest 392 451 27,200 1,680 Climbing Washington Center
07:52PM 36.6317 -79.8342 307° West 392 451 28,800 1,560 Climbing Washington Center
07:53PM 36.6922 -79.9489 303° West 399 459 30,400 1,200 Climbing Washington Center
07:54PM 36.7800 -80.1253 302° West 396 456 32,000 600 Climbing Atlanta Center
07:55PM 36.8422 -80.2467 303° West 406 467 32,000  Level Atlanta Center
07:56PM 36.9042 -80.3658 303° West 406 467 32,000  Level Atlanta Center
07:58PM 37.0047 -80.5472 305° West 411 473 32,000  Level Indianapolis Center
07:59PM 37.0625 -80.6633 302° West 404 465 32,000  Level Indianapolis Center
08:00PM 37.1719 -80.7619 324° Northwest 411 473 32,000  Level Indianapolis Center
08:01PM 37.2733 -80.8203 335° Northwest 408 470 32,000  Level Indianapolis Center
08:02PM 37.3775 -80.8817 335° Northwest 419 482 32,000  Level Indianapolis Center
08:03PM 37.4811 -80.9428 335° Northwest 420 483 32,000  Level Indianapolis Center
08:04PM 37.6086 -81.0158 336° Northwest 426 490 32,000  Level Indianapolis Center
08:05PM 37.7214 -81.0539 345° North 429 494 32,000  Level Indianapolis Center
08:06PM 37.8331 -81.0917 345° North 427 491 32,000  Level Indianapolis Center
08:07PM 37.9486 -81.1303 345° North 428 493 32,000  Level Indianapolis Center
08:08PM 38.0631 -81.1697 345° North 425 489 32,000  Level Indianapolis Center
08:09PM 38.1747 -81.2186 341° North 423 487 32,000  Level Indianapolis Center
08:10PM 38.3072 -81.2825 339° North 424 488 32,000  Level Indianapolis Center
08:11PM 38.4164 -81.3344 340° North 419 482 32,000  Level Indianapolis Center
08:12PM 38.5297 -81.3717 346° North 421 484 32,000  Level Indianapolis Center
08:13PM 38.6444 -81.3950 351° North 423 487 32,000  Level Indianapolis Center
08:14PM 38.7728 -81.4261 349° North 419 482 32,000  Level Indianapolis Center
08:15PM 38.8950 -81.4522 351° North 430 495 32,000  Level Indianapolis Center
08:16PM 39.0089 -81.4869 347° North 424 488 32,000  Level Indianapolis Center
08:17PM 39.1217 -81.5253 345° North 420 483 32,000  Level Indianapolis Center
08:19PM 39.2367 -81.5628 346° North 425 489 32,000  Level Indianapolis Center
08:20PM 39.3500 -81.6014 345° North 424 488 32,000  Level Indianapolis Center
08:21PM 39.4642 -81.6392 346° North 423 487 32,000  Level Indianapolis Center
08:22PM 39.6014 -81.6872 345° North 426 490 32,000  Level Indianapolis Center
08:23PM 39.7181 -81.7272 345° North 426 490 32,000  Level Indianapolis Center
08:24PM 39.8325 -81.7644 346° North 427 491 32,000  Level Indianapolis Center
08:25PM 39.9469 -81.8050 345° North 427 491 32,000 -300 Level Indianapolis Center
08:26PM 40.0625 -81.8439 346° North 429 494 31,400 -600 Descending Indianapolis Center
08:28PM 40.2231 -81.8969 346° North  Level FlightAware Approximate
08:28PM 40.2944 -81.9239 346° North 427 491 30,200  Level Indianapolis Center
08:29PM 40.4269 -81.9706 345° North 420 483 30,000 -120 Descending Indianapolis Center
08:30PM 40.5431 -82.0092 346° North 424 488 30,000  Level Indianapolis Center
08:31PM 40.6519 -82.0753 335° Northwest 426 490 30,000  Level Indianapolis Center
08:32PM 40.7592 -82.1442 334° Northwest 424 488 30,000 -600 Level Indianapolis Center
08:33PM 40.8664 -82.2122 334° Northwest 423 487 28,800 -1,620 Descending Indianapolis Center
08:34PM 40.9725 -82.2825 333° Northwest 421 484 26,800 -2,040 Descending Indianapolis Center
08:35PM 41.0736 -82.3492 334° Northwest 405 466 24,700 -1,500 Descending Indianapolis Center
08:36PM 41.1906 -82.4228 335° Northwest 396 456 23,500 -1,680 Descending Cleveland Center
08:37PM 41.3025 -82.4964 334° Northwest 382 440 21,000 -2,280 Descending Cleveland Center
08:38PM 41.3981 -82.5603 333° Northwest 380 437 18,900 -1,860 Descending Cleveland Center
08:39PM 41.4925 -82.6222 334° Northwest 375 432 17,200 -1,800 Descending Cleveland Center
08:40PM 41.5369 -82.6547 331° Northwest 370 426 16,200 -2,160 Descending Cleveland Center
08:40PM 41.5833 -82.6836 335° Northwest 364 419 15,000 -2,400 Descending Cleveland Center
08:41PM 41.6050 -82.6997 331° Northwest 359 413 14,500 -1,860 Descending Cleveland Center
08:41PM 41.6664 -82.7375 335° Northwest 356 410 13,100 -1,980 Descending Cleveland Center
08:42PM 41.6906 -82.7583 327° Northwest 347 399 12,500 -1,020 Descending Cleveland Center
08:42PM 41.7481 -82.8022 330° Northwest 344 396 12,100 -420 Descending Cleveland Center
08:43PM 41.7708 -82.8358 312° West 344 396 12,100  Level Cleveland Center
08:44PM 41.8422 -82.9181 319° Northwest 346 398 12,100  Level Cleveland Center
08:44PM 41.9053 -82.9919 319° Northwest 348 400 12,100  Level Cleveland Center
08:45PM 41.9131 -83.0061 306° West 349 402 12,100  Level Cleveland Center
08:46PM 41.9767 -83.0806 319° Northwest 350 403 12,100  Level Cleveland Center
08:46PM 41.9864 -83.0919 319° Northwest 350 403 12,100  Level Cleveland Center
08:47PM 42.0486 -83.1667 318° Northwest 348 400 12,100  Level Cleveland Center
08:47PM 42.0611 -83.1836 315° West 344 396 12,100 -120 Level Cleveland Center
08:48PM 42.1289 -83.2550 322° Northwest 335 386 12,000 -120 Descending Cleveland Center
08:48PM 42.1283 -83.2528 109° East 333 383 12,000 -1,500 Level Cleveland Center
08:49PM 42.2089 -83.2236 15° North 293 337 10,500 -1,560 Descending Cleveland Center
08:49PM 42.2106 -83.2203 56° Northeast 312 359 10,400 -2,580 Descending Cleveland Center
08:50PM 42.2833 -83.1806 22° Northeast 281 323 7,900 -2,520 Descending Cleveland Center
08:50PM 42.2869 -83.1769 36° Northeast 289 333 7,800 -2,400 Descending Cleveland Center
08:51PM 42.3553 -83.1453 19° North 278 320 5,500 -2,400 Descending Cleveland Center
08:51PM 42.3578 -83.1428 36° Northeast 279 321 5,400 -1,500 Descending Cleveland Center
08:52PM 42.3833 -83.2142 296° West 234 269 4,000 -1,380 Descending Cleveland Center
08:52PM 42.3831 -83.2106 96° East 252 290 4,000 -1,020 Level Cleveland Center
08:53PM 42.3325 -83.2494 210° Southwest 185 213 3,000 -1,020 Descending Cleveland Center
08:53PM 42.3314 -83.2500 200° South 224 258 3,000 -540 Level Cleveland Center
08:54PM 42.2925 -83.2806 210° Southwest 149 171 2,500 -540 Descending Cleveland Center
08:54PM 42.2914 -83.2794 144° Southeast 188 216 2,500 -840 Level Cleveland Center
08:55PM 42.2544 -83.3092 211° Southwest 150 173 1,700 -900 Descending Cleveland Center
08:55PM 42.2547 -83.3072 79° East 164 189 1,600 -360 Descending Cleveland Center
08:56PM 42.2119 -83.3386 209° Southwest 158 182 1,300 -300 Descending Cleveland Center